CheckWX is a tool to help pilots better visualize weather data.  It is not intended as a substitute for an official pre-flight weather briefing.

01:11:12 UTC

BGJN METAR
Ilulissat Airport
Ilulissat, Greenland
Current

21 mins ago

BGJN 240050Z AUTO 10018KT 9999NDV FEW110/// SCT130/// M17/M24 Q1012
Observed
Mar-24 @ 00:50 UTC
Wind
  • 100° at 18 KTS
Visibility
Cloud Levels
  • Few at 11,000' AGL
  • Scattered at 13,000' AGL
Temperature
-17°C / 1°F
Dewpoint
-24°C / -11°F
Humidity
55%
Altimeter
29.88" Hg
Pressure
1011.92 hPa
Previous

1 hour ago

BGJN 232350Z AUTO 10015KT 9999NDV FEW070/// BKN095/// BKN110/// M17/M25 Q1013
Observed
Mar-23 @ 23:50 UTC
Wind
  • 100° at 15 KTS
Visibility
Cloud Levels
  • Few at 7,000' AGL
  • Broken at 9,500' AGL
  • Broken at 11,000' AGL
Temperature
-17°C / 1°F
Dewpoint
-25°C / -13°F
Humidity
50%
Altimeter
29.91" Hg
Pressure
1012.92 hPa
Previous

2 hours ago

BGJN 232250Z AUTO 10019KT 3500NDV -SHSN BR FEW065/// BKN080/// BKN095/// M18/M25 Q1013
Observed
Mar-23 @ 22:50 UTC
Wind
  • 100° at 19 KTS
Visibility
Conditions
Light Snow, Mist
Cloud Levels
  • Few at 6,500' AGL
  • Broken at 8,000' AGL
  • Broken at 9,500' AGL
Temperature
-18°C / -0°F
Dewpoint
-25°C / -13°F
Humidity
54%
Altimeter
29.91" Hg
Pressure
1012.92 hPa